createdAt,value
2023-05-19T00:00:15.508Z,65.01
2023-05-19T00:03:21.851Z,64.73
2023-05-19T00:06:26.928Z,64.77
2023-05-19T00:09:29.645Z,64.77
2023-05-19T00:12:32.264Z,64.36
2023-05-19T00:15:35.465Z,64.68
2023-05-19T00:18:37.947Z,64.52
2023-05-19T00:21:40.596Z,64.84
2023-05-19T00:24:43.021Z,64.72
2023-05-19T00:27:45.464Z,64.75
2023-05-19T00:30:47.988Z,64.54
2023-05-19T00:33:50.406Z,64.99
2023-05-19T00:36:52.827Z,64.91
2023-05-19T00:39:55.328Z,64.76
2023-05-19T00:42:57.807Z,64.85
2023-05-19T00:46:00.492Z,64.91
2023-05-19T00:49:02.958Z,64.53
2023-05-19T00:52:06.550Z,64.71
2023-05-19T00:55:09.950Z,64.76
2023-05-19T00:58:14.232Z,64.51
2023-05-19T01:01:17.418Z,64.85
2023-05-19T01:04:21.759Z,64.40
2023-05-19T01:07:25.504Z,64.60
2023-05-19T01:10:27.907Z,64.61
2023-05-19T01:13:30.991Z,64.73
2023-05-19T01:16:59.444Z,64.42
2023-05-19T01:20:08.205Z,64.46
2023-05-19T01:23:49.458Z,64.61
2023-05-19T01:27:00.828Z,64.76
2023-05-19T01:30:42.114Z,64.75
2023-05-19T01:33:46.001Z,64.61
2023-05-19T01:36:51.444Z,64.69
2023-05-19T01:39:55.754Z,64.53
2023-05-19T01:43:00.262Z,64.85
2023-05-19T01:46:03.309Z,64.67
2023-05-19T01:49:06.770Z,64.86
2023-05-19T01:52:09.201Z,64.83
2023-05-19T01:55:11.817Z,64.62
2023-05-19T01:58:43.463Z,64.63
2023-05-19T02:01:53.116Z,64.74
2023-05-19T02:05:00.686Z,64.61
2023-05-19T02:08:09.868Z,64.57
2023-05-19T02:11:29.773Z,64.71
2023-05-19T02:14:38.727Z,64.57
2023-05-19T02:17:47.813Z,64.58
2023-05-19T02:20:50.526Z,64.86
2023-05-19T02:23:52.926Z,64.52
2023-05-19T02:26:55.629Z,64.57
2023-05-19T02:29:58.117Z,64.69
2023-05-19T02:33:00.717Z,64.64
2023-05-19T02:36:03.293Z,64.72
2023-05-19T02:39:05.832Z,64.72
2023-05-19T02:42:08.325Z,64.41
2023-05-19T02:45:11.248Z,64.53
2023-05-19T02:48:16.425Z,64.55
2023-05-19T02:51:18.875Z,64.59
2023-05-19T02:54:21.324Z,64.76
2023-05-19T02:57:24.229Z,64.65
2023-05-19T03:00:26.623Z,64.75
2023-05-19T03:03:29.183Z,64.44
2023-05-19T03:06:32.933Z,64.62
2023-05-19T03:09:35.841Z,64.86
2023-05-19T03:12:38.320Z,64.74
2023-05-19T03:15:42.609Z,64.89
2023-05-19T03:18:45.164Z,64.70
2023-05-19T03:21:47.729Z,64.82
2023-05-19T03:24:51.559Z,64.50
2023-05-19T03:27:54.066Z,64.61
2023-05-19T03:30:56.627Z,64.87
2023-05-19T03:34:03.251Z,64.75
2023-05-19T03:37:05.730Z,64.90
2023-05-19T03:40:10.609Z,64.63
2023-05-19T03:43:16.321Z,64.71
2023-05-19T03:46:27.680Z,64.74
2023-05-19T03:49:40.574Z,64.46
2023-05-19T03:53:12.236Z,64.75
2023-05-19T03:56:18.236Z,64.87
2023-05-19T03:59:20.696Z,64.63
2023-05-19T04:02:23.179Z,64.66
2023-05-19T04:05:25.893Z,64.39
2023-05-19T04:08:29.427Z,64.21
2023-05-19T04:11:31.955Z,63.90
2023-05-19T04:14:34.341Z,63.68
2023-05-19T04:17:36.965Z,63.44
2023-05-19T04:20:39.459Z,62.94
2023-05-19T04:23:41.864Z,62.30
2023-05-19T04:26:46.901Z,61.95
2023-05-19T04:29:51.149Z,61.76
2023-05-19T04:32:53.789Z,61.48
2023-05-19T04:35:56.849Z,60.71
2023-05-19T04:39:02.605Z,60.33
2023-05-19T04:42:06.405Z,59.95
2023-05-19T04:45:10.205Z,59.53
2023-05-19T04:48:15.896Z,59.20
2023-05-19T04:51:18.300Z,59.09
2023-05-19T04:54:21.527Z,58.75
2023-05-19T04:57:24.141Z,58.86
2023-05-19T05:00:26.868Z,58.62
2023-05-19T05:03:38.902Z,58.54
2023-05-19T05:06:42.513Z,58.41
2023-05-19T05:09:45.620Z,58.30
2023-05-19T05:12:48.350Z,58.45
2023-05-19T05:15:54.580Z,58.42
2023-05-19T05:18:58.037Z,58.39
2023-05-19T05:22:01.152Z,58.18
2023-05-19T05:25:05.070Z,58.23
2023-05-19T05:28:07.620Z,58.22
2023-05-19T05:31:12.352Z,58.48
2023-05-19T05:34:15.828Z,58.76
2023-05-19T05:37:18.769Z,58.54
2023-05-19T05:40:21.621Z,58.42
2023-05-19T05:43:24.334Z,58.56
2023-05-19T05:46:33.135Z,58.37
2023-05-19T05:49:38.287Z,58.57
2023-05-19T05:52:42.398Z,58.50
2023-05-19T05:55:46.828Z,58.62
2023-05-19T05:58:50.695Z,58.37
2023-05-19T06:01:53.629Z,58.56
2023-05-19T06:04:56.846Z,58.71
2023-05-19T06:07:59.762Z,58.63
2023-05-19T06:11:20.484Z,58.52
2023-05-19T06:14:24.050Z,58.85
2023-05-19T06:19:02.626Z,58.71
2023-05-19T06:22:58.386Z,58.20
2023-05-19T06:26:06.688Z,57.97
2023-05-19T06:29:09.165Z,57.13
2023-05-19T06:32:11.750Z,57.25
2023-05-19T06:35:15.151Z,57.14
2023-05-19T06:38:17.679Z,57.16
2023-05-19T06:41:24.367Z,57.05
2023-05-19T06:44:27.600Z,57.12
2023-05-19T06:47:30.303Z,56.73
2023-05-19T06:50:33.103Z,56.12
2023-05-19T06:53:36.790Z,55.72
2023-05-19T06:56:43.325Z,55.40
2023-05-19T06:59:48.877Z,54.96
2023-05-19T07:02:51.426Z,54.12
2023-05-19T07:05:54.615Z,53.93
2023-05-19T07:08:57.179Z,53.86
2023-05-19T07:12:01.584Z,54.56
2023-05-19T07:15:06.044Z,54.64
2023-05-19T07:18:09.696Z,54.96
2023-05-19T07:21:12.079Z,55.01
2023-05-19T07:24:15.202Z,55.22
2023-05-19T07:27:17.656Z,55.26
2023-05-19T07:30:20.090Z,55.37
2023-05-19T07:33:22.567Z,55.70
2023-05-19T07:36:25.183Z,55.78
2023-05-19T07:39:32.247Z,56.10
2023-05-19T07:42:35.281Z,56.25
2023-05-19T07:45:38.499Z,56.09
2023-05-19T07:48:52.087Z,55.80
2023-05-19T07:51:54.661Z,55.72
2023-05-19T07:54:57.140Z,55.27
2023-05-19T07:57:59.778Z,55.27
2023-05-19T08:01:02.702Z,55.48
2023-05-19T08:04:05.763Z,55.21
2023-05-19T08:07:09.423Z,55.30
2023-05-19T08:10:12.025Z,55.46
2023-05-19T08:13:14.488Z,55.38
2023-05-19T08:16:17.082Z,55.52
2023-05-19T08:19:22.193Z,55.79
2023-05-19T08:22:25.098Z,55.95
2023-05-19T08:25:27.803Z,56.03
2023-05-19T08:28:30.860Z,56.29
2023-05-19T08:31:36.896Z,56.48
2023-05-19T08:34:50.741Z,56.72
2023-05-19T08:37:54.139Z,56.52
2023-05-19T08:40:58.232Z,56.67
2023-05-19T08:44:00.898Z,56.67
2023-05-19T08:47:12.829Z,57.31
2023-05-19T08:50:24.994Z,57.35
2023-05-19T08:53:37.061Z,57.49
2023-05-19T08:56:39.760Z,57.64
2023-05-19T08:59:43.732Z,57.83
2023-05-19T09:02:59.819Z,57.58
2023-05-19T09:06:08.845Z,58.09
2023-05-19T09:09:11.795Z,58.07
2023-05-19T09:12:14.581Z,58.10
2023-05-19T09:15:21.231Z,58.32
2023-05-19T09:18:25.223Z,58.33
2023-05-19T09:21:31.690Z,58.35
2023-05-19T09:24:35.005Z,58.72
2023-05-19T09:27:38.186Z,58.59
2023-05-19T09:34:13.546Z,58.75
2023-05-19T09:37:27.237Z,58.96
2023-05-19T09:40:32.783Z,59.46
2023-05-19T09:43:35.730Z,59.29
2023-05-19T09:46:38.813Z,59.50
2023-05-19T09:49:54.009Z,59.84
2023-05-19T09:53:05.598Z,59.87
2023-05-19T09:59:33.435Z,59.24
2023-05-19T10:02:37.091Z,59.47
2023-05-19T10:05:41.623Z,59.64
2023-05-19T10:08:44.348Z,59.42
2023-05-19T10:11:49.211Z,59.50
2023-05-19T10:14:54.864Z,59.52
2023-05-19T10:17:57.645Z,59.54
2023-05-19T10:21:02.741Z,59.52
2023-05-19T10:24:05.662Z,59.45
2023-05-19T10:27:11.915Z,59.45
2023-05-19T10:30:23.831Z,59.53
2023-05-19T10:33:45.335Z,59.51
2023-05-19T10:37:15.132Z,59.72
2023-05-19T10:40:30.709Z,59.73
2023-05-19T10:43:49.925Z,59.76
2023-05-19T10:46:53.505Z,59.90
2023-05-19T10:50:00.840Z,59.66
2023-05-19T10:54:12.201Z,59.81
2023-05-19T10:57:18.395Z,59.86
2023-05-19T11:00:28.188Z,59.57
2023-05-19T11:06:44.005Z,59.88
2023-05-19T11:09:51.823Z,60.07
2023-05-19T11:16:08.244Z,60.18
2023-05-19T11:19:20.029Z,60.40
2023-05-19T11:22:28.657Z,60.26
2023-05-19T11:25:51.666Z,60.54
2023-05-19T11:28:54.479Z,60.33
2023-05-19T11:31:57.320Z,60.36
2023-05-19T11:35:00.985Z,60.62
2023-05-19T11:38:04.116Z,60.51
2023-05-19T11:41:06.654Z,60.56
2023-05-19T11:44:12.372Z,60.45
2023-05-19T11:47:15.828Z,60.44
2023-05-19T11:50:19.036Z,60.17
2023-05-19T11:53:21.543Z,60.06
2023-05-19T11:56:24.007Z,60.39
2023-05-19T11:59:35.634Z,60.34
2023-05-19T12:02:39.631Z,60.47
2023-05-19T12:05:46.706Z,60.56
2023-05-19T12:08:52.148Z,60.95
2023-05-19T12:11:55.248Z,61.12
2023-05-19T12:14:59.774Z,61.34
2023-05-19T12:18:02.703Z,60.89
2023-05-19T12:21:06.005Z,61.35
2023-05-19T12:24:09.056Z,61.29
2023-05-19T12:27:13.884Z,61.15
2023-05-19T12:30:17.392Z,61.15
2023-05-19T12:33:20.164Z,61.21
2023-05-19T12:36:25.188Z,61.28
2023-05-19T12:39:27.856Z,61.04
2023-05-19T12:42:31.581Z,61.29
2023-05-19T12:45:35.116Z,61.04
2023-05-19T12:48:44.467Z,61.17
2023-05-19T12:51:54.181Z,60.93
2023-05-19T12:55:07.600Z,61.20
2023-05-19T12:58:12.182Z,61.24
2023-05-19T13:01:18.864Z,61.44
2023-05-19T13:04:21.389Z,61.15
2023-05-19T13:07:23.936Z,61.15
2023-05-19T13:10:27.863Z,61.17
2023-05-19T13:13:30.290Z,61.11
2023-05-19T13:16:33.084Z,61.07
2023-05-19T13:19:35.648Z,61.32
2023-05-19T13:22:38.295Z,61.19
2023-05-19T13:25:41.572Z,61.16
2023-05-19T13:28:43.995Z,61.15
2023-05-19T13:31:46.536Z,61.00
2023-05-19T13:34:49.038Z,60.94
2023-05-19T13:37:51.431Z,61.11
2023-05-19T13:40:53.972Z,60.93
2023-05-19T13:43:59.800Z,61.00
2023-05-19T13:47:02.287Z,61.08
2023-05-19T13:50:05.792Z,60.92
2023-05-19T13:53:08.544Z,60.94
2023-05-19T13:56:11.007Z,60.99
2023-05-19T13:59:14.084Z,61.19
2023-05-19T14:02:16.612Z,60.95
2023-05-19T14:05:19.086Z,60.86
2023-05-19T14:08:22.162Z,60.90
2023-05-19T14:11:24.694Z,60.79
2023-05-19T14:14:27.226Z,60.99
2023-05-19T14:17:29.665Z,61.00
2023-05-19T14:20:32.358Z,61.05
2023-05-19T14:23:34.896Z,60.86
2023-05-19T14:26:37.309Z,60.64
2023-05-19T14:29:39.736Z,60.70
2023-05-19T14:32:42.394Z,60.91
2023-05-19T14:35:45.098Z,61.09
2023-05-19T14:38:47.454Z,60.81
2023-05-19T14:41:51.580Z,60.82
2023-05-19T14:44:54.038Z,60.52
2023-05-19T14:47:59.607Z,60.82
2023-05-19T14:51:02.032Z,60.64
2023-05-19T14:54:04.420Z,60.71
2023-05-19T14:57:08.225Z,60.89
2023-05-19T15:00:11.109Z,60.77
2023-05-19T15:03:13.612Z,60.61
2023-05-19T15:06:16.132Z,60.80
2023-05-19T15:09:18.569Z,60.82
2023-05-19T15:12:21.077Z,60.58
2023-05-19T15:15:23.667Z,60.63
2023-05-19T15:18:26.316Z,61.00
2023-05-19T15:21:28.834Z,60.74
2023-05-19T15:24:31.220Z,61.17
2023-05-19T15:27:37.642Z,61.24
2023-05-19T15:30:40.239Z,61.12
2023-05-19T15:33:42.660Z,61.04
2023-05-19T15:36:45.275Z,61.28
2023-05-19T15:39:47.779Z,61.16
2023-05-19T15:42:50.492Z,61.11
2023-05-19T15:45:55.257Z,61.50
2023-05-19T15:48:57.852Z,61.14
2023-05-19T15:52:00.422Z,61.08
2023-05-19T15:55:02.973Z,60.97
2023-05-19T15:58:05.462Z,61.30
2023-05-19T16:01:08.465Z,61.33
2023-05-19T16:04:11.344Z,61.25
2023-05-19T16:07:13.895Z,61.55
2023-05-19T16:10:16.378Z,61.33
2023-05-19T16:13:18.811Z,61.24
2023-05-19T16:16:21.357Z,61.22
2023-05-19T16:19:24.160Z,61.20
2023-05-19T16:22:27.278Z,61.26
2023-05-19T16:25:29.872Z,61.25
2023-05-19T16:28:32.619Z,61.08
2023-05-19T16:31:35.114Z,60.96
2023-05-19T16:34:37.571Z,60.99
2023-05-19T16:37:40.239Z,61.17
2023-05-19T16:40:42.727Z,61.18
2023-05-19T16:43:45.215Z,61.12
2023-05-19T16:46:47.654Z,61.04
2023-05-19T16:49:50.224Z,61.07
2023-05-19T16:52:52.659Z,60.98
2023-05-19T16:55:55.099Z,60.96
2023-05-19T16:58:57.617Z,61.00
2023-05-19T17:02:00.197Z,61.11
2023-05-19T17:05:02.719Z,61.13
2023-05-19T17:08:05.965Z,60.98
2023-05-19T17:11:08.650Z,61.23
2023-05-19T17:14:11.138Z,61.04
2023-05-19T17:17:13.667Z,61.22
2023-05-19T17:20:16.535Z,61.08
2023-05-19T17:23:18.981Z,61.10
2023-05-19T17:26:22.204Z,60.93
2023-05-19T17:29:24.857Z,61.08
2023-05-19T17:32:29.360Z,61.16
2023-05-19T17:35:33.461Z,61.32
2023-05-19T17:38:40.243Z,61.24
2023-05-19T17:41:43.172Z,61.19
2023-05-19T17:44:45.628Z,61.00
2023-05-19T17:47:48.593Z,61.07
2023-05-19T17:50:51.179Z,61.08
2023-05-19T17:53:53.905Z,61.14
2023-05-19T17:56:58.465Z,60.83
2023-05-19T18:00:02.025Z,61.11
2023-05-19T18:03:08.082Z,61.23
2023-05-19T18:06:11.870Z,61.08
2023-05-19T18:09:15.630Z,61.18
2023-05-19T18:12:18.159Z,61.25
2023-05-19T18:15:20.791Z,61.42
2023-05-19T18:18:23.239Z,61.48
2023-05-19T18:21:26.927Z,61.18
2023-05-19T18:24:29.391Z,61.59
2023-05-19T18:27:33.516Z,61.58
2023-05-19T18:30:36.294Z,61.54
2023-05-19T18:33:39.935Z,61.49
2023-05-19T18:36:42.482Z,61.62
2023-05-19T18:39:44.967Z,61.68
2023-05-19T18:42:47.879Z,61.72
2023-05-19T18:45:50.468Z,61.72
2023-05-19T18:48:53.036Z,61.66
2023-05-19T18:51:55.591Z,61.93
2023-05-19T18:54:59.671Z,61.96
2023-05-19T18:58:02.137Z,61.97
2023-05-19T19:01:05.309Z,62.23
2023-05-19T19:04:07.904Z,62.03
2023-05-19T19:07:10.370Z,62.15
2023-05-19T19:10:13.065Z,62.18
2023-05-19T19:13:15.550Z,62.21
2023-05-19T19:16:18.029Z,62.34
2023-05-19T19:19:20.774Z,62.37
2023-05-19T19:22:23.286Z,62.42
2023-05-19T19:25:25.819Z,62.39
2023-05-19T19:28:28.274Z,62.16
2023-05-19T19:31:30.768Z,62.44
2023-05-19T19:34:33.974Z,62.75
2023-05-19T19:37:36.477Z,62.80
2023-05-19T19:40:38.982Z,62.54
2023-05-19T19:43:41.398Z,62.78
2023-05-19T19:46:43.958Z,62.60
2023-05-19T19:49:46.519Z,63.23
2023-05-19T19:52:48.942Z,62.85
2023-05-19T19:56:01.675Z,62.81
2023-05-19T19:59:04.104Z,63.01
2023-05-19T20:02:07.052Z,63.18
2023-05-19T20:05:09.821Z,63.12
2023-05-19T20:08:13.958Z,63.08
2023-05-19T20:11:17.489Z,63.01
2023-05-19T20:14:20.007Z,63.12
2023-05-19T20:17:22.471Z,63.03
2023-05-19T20:20:25.022Z,63.36
2023-05-19T20:23:27.551Z,63.32
2023-05-19T20:26:30.052Z,63.37
2023-05-19T20:29:34.909Z,63.59
2023-05-19T20:32:37.327Z,63.32
2023-05-19T20:35:39.893Z,63.39
2023-05-19T20:38:42.426Z,63.32
2023-05-19T20:41:44.902Z,63.47
2023-05-19T20:44:47.313Z,63.54
2023-05-19T20:47:49.849Z,63.72
2023-05-19T20:50:53.747Z,63.44
2023-05-19T20:53:56.210Z,63.46
2023-05-19T20:56:58.671Z,63.83
2023-05-19T21:00:01.158Z,63.53
2023-05-19T21:03:03.723Z,63.78
2023-05-19T21:06:06.565Z,64.00
2023-05-19T21:09:09.675Z,63.62
2023-05-19T21:12:15.089Z,63.57
2023-05-19T21:15:17.602Z,63.53
2023-05-19T21:18:20.101Z,63.72
2023-05-19T21:21:22.555Z,63.77
2023-05-19T21:24:24.954Z,63.81
2023-05-19T21:27:27.451Z,63.78
2023-05-19T21:30:29.970Z,63.63
2023-05-19T21:33:32.484Z,63.51
2023-05-19T21:36:35.327Z,63.82
2023-05-19T21:39:37.770Z,63.70
2023-05-19T21:42:40.290Z,63.53
2023-05-19T21:45:42.756Z,64.03
2023-05-19T21:48:45.260Z,63.70
2023-05-19T21:51:47.752Z,63.97
2023-05-19T21:54:52.025Z,63.80
2023-05-19T21:57:54.466Z,64.01
2023-05-19T22:00:56.919Z,64.04
2023-05-19T22:03:59.414Z,64.02
2023-05-19T22:07:01.943Z,63.77
2023-05-19T22:10:04.820Z,63.85
2023-05-19T22:13:07.472Z,64.02
2023-05-19T22:16:10.134Z,64.11
2023-05-19T22:19:12.968Z,63.96
2023-05-19T22:22:16.011Z,64.27
2023-05-19T22:25:18.682Z,63.98
2023-05-19T22:28:21.169Z,63.90
2023-05-19T22:31:23.589Z,63.88
2023-05-19T22:34:26.251Z,64.07
2023-05-19T22:37:29.154Z,64.01
2023-05-19T22:40:32.645Z,64.07
2023-05-19T22:43:35.323Z,64.09
2023-05-19T22:46:37.902Z,64.30
2023-05-19T22:49:41.557Z,64.26
2023-05-19T22:52:44.062Z,64.04
2023-05-19T22:55:46.579Z,64.03
2023-05-19T22:58:49.042Z,64.11
2023-05-19T23:01:51.446Z,64.37
2023-05-19T23:04:53.877Z,64.16
2023-05-19T23:07:56.312Z,64.26
2023-05-19T23:11:02.360Z,64.09
2023-05-19T23:14:04.985Z,64.08
2023-05-19T23:17:07.495Z,64.19
2023-05-19T23:20:10.737Z,64.15
2023-05-19T23:23:13.347Z,64.31
2023-05-19T23:26:15.919Z,64.40
2023-05-19T23:29:18.539Z,64.13
2023-05-19T23:32:21.026Z,64.12
2023-05-19T23:35:23.550Z,64.50
2023-05-19T23:38:27.080Z,64.13
2023-05-19T23:41:29.632Z,64.25
2023-05-19T23:44:32.110Z,64.58
2023-05-19T23:47:34.600Z,64.34
2023-05-19T23:50:37.116Z,64.70
2023-05-19T23:53:39.703Z,64.58
2023-05-19T23:56:42.084Z,64.62
2023-05-19T23:59:44.796Z,64.54
